Time;durP1;ratioP1;P1;durP2;ratioP2;P2;SDS_P1;SDS_P2;PMS_P1;PMS_P2;Temp;Humidity;BMP_temperature;BMP_pressure;BME280_temperature;BME280_humidity;BME280_pressure;Samples;Min_cycle;Max_cycle;Signal;HPM_P1;HPM_P2
2023/04/24 00:02:21;;;;;;;13.52;11.07;;;;;;;8.87;100.00;99979.63;5075576;28;20404;-80
2023/04/24 00:04:48;;;;;;;12.93;10.68;;;;;;;8.11;100.00;99852.81;5075570;28;20040;-81
2023/04/24 00:07:16;;;;;;;13.60;11.32;;;;;;;8.44;100.00;99901.97;5075869;28;20027;-87
2023/04/24 00:09:42;;;;;;;12.98;10.82;;;;;;;8.87;100.00;99966.75;5075538;28;20074;-79
2023/04/24 00:12:08;;;;;;;14.77;10.57;;;;;;;8.89;100.00;99980.31;5075660;28;20131;-87
2023/04/24 00:14:34;;;;;;;14.32;11.70;;;;;;;8.88;100.00;99981.25;5075591;28;20063;-80
2023/04/24 00:17:00;;;;;;;14.68;11.73;;;;;;;8.89;100.00;99971.78;5075307;28;20024;-79
2023/04/24 00:19:25;;;;;;;14.40;12.13;;;;;;;8.90;100.00;99971.66;5075623;28;20485;-79
2023/04/24 00:21:51;;;;;;;13.95;11.00;;;;;;;8.64;100.00;99936.59;5075319;28;20021;-81
2023/04/24 00:24:17;;;;;;;15.95;12.05;;;;;;;8.65;100.00;99940.81;5075315;28;20029;-77
2023/04/24 00:26:42;;;;;;;15.88;12.80;;;;;;;8.86;100.00;99983.13;5075195;28;20028;-78
2023/04/24 00:29:08;;;;;;;19.98;13.57;;;;;;;8.70;100.00;99954.22;5075282;28;20027;-78
2023/04/24 00:31:36;;;;;;;17.35;14.63;;;;;;;8.82;100.00;99986.00;5075283;28;20035;-78
2023/04/24 00:34:02;;;;;;;17.77;13.80;;;;;;;8.67;100.00;99961.34;5075096;28;20583;-78
2023/04/24 00:36:28;;;;;;;18.55;15.90;;;;;;;8.80;100.00;99982.72;5075275;28;20024;-79
2023/04/24 00:38:54;;;;;;;22.10;16.15;;;;;;;8.55;100.00;99944.97;5074935;28;20124;-78
2023/04/24 00:41:21;;;;;;;22.83;17.50;;;;;;;8.63;100.00;99963.28;5074908;28;20027;-78
2023/04/24 00:43:47;;;;;;;20.98;17.60;;;;;;;8.74;100.00;99996.81;5074777;28;20476;-78
2023/04/24 00:46:13;;;;;;;25.70;18.73;;;;;;;8.69;100.00;99991.19;5074923;28;20040;-82
2023/04/24 00:48:40;;;;;;;22.48;18.13;;;;;;;8.54;100.00;99981.91;5075135;28;20032;-79
2023/04/24 00:51:05;;;;;;;21.60;17.48;;;;;;;8.34;100.00;99950.63;5074480;28;20464;-80
2023/04/24 00:53:31;;;;;;;21.65;17.35;;;;;;;8.62;100.00;99995.09;5074523;28;20043;-79
2023/04/24 00:55:57;;;;;;;22.52;18.38;;;;;;;8.41;100.00;99965.69;5074742;28;20023;-79
2023/04/24 00:58:23;;;;;;;23.73;19.55;;;;;;;8.66;100.00;100001.69;5074824;28;20035;-79
2023/04/24 01:00:52;;;;;;;25.73;19.33;;;;;;;8.39;100.00;99949.53;5074488;28;20032;-78
2023/04/24 01:03:20;;;;;;;29.13;19.27;;;;;;;8.68;100.00;99999.84;5074788;28;20132;-78
2023/04/24 01:05:45;;;;;;;25.27;19.02;;;;;;;8.68;100.00;99999.84;5074316;28;20098;-80
2023/04/24 01:08:13;;;;;;;23.90;18.48;;;;;;;8.57;100.00;99982.56;5074642;28;20434;-79
2023/04/24 01:10:40;;;;;;;27.30;19.23;;;;;;;8.65;100.00;99989.72;5074528;28;20060;-80
2023/04/24 01:13:10;;;;;;;27.00;18.75;;;;;;;8.56;100.00;99967.22;5074581;28;20131;-78
2023/04/24 01:15:35;;;;;;;28.65;21.42;;;;;;;8.39;100.00;99946.94;5074505;28;20035;-79
2023/04/24 01:18:01;;;;;;;26.50;20.55;;;;;;;8.64;100.00;99985.50;5073228;28;20484;-79
2023/04/24 01:20:26;;;;;;;29.15;21.73;;;;;;;8.44;100.00;99957.75;5072688;28;20094;-79
2023/04/24 01:22:54;;;;;;;31.27;21.65;;;;;;;8.60;100.00;99984.09;5074170;28;20093;-78
2023/04/24 01:25:20;;;;;;;28.00;21.83;;;;;;;8.33;100.00;99948.97;5074188;28;20020;-79
2023/04/24 01:27:46;;;;;;;27.52;21.55;;;;;;;8.49;100.00;99989.13;5074233;28;20103;-86
2023/04/24 01:30:12;;;;;;;30.80;22.40;;;;;;;8.14;100.00;99937.44;5074484;28;20456;-78
2023/04/24 01:32:38;;;;;;;30.13;21.17;;;;;;;8.38;100.00;99997.59;5072723;28;20086;-78
2023/04/24 01:35:04;;;;;;;29.13;20.20;;;;;;;8.13;100.00;99958.94;5073936;28;20025;-77
2023/04/24 01:37:32;;;;;;;27.67;21.80;;;;;;;8.27;100.00;99992.31;5073888;28;20439;-77
2023/04/24 01:39:57;;;;;;;33.25;22.58;;;;;;;7.82;100.00;99926.75;5073767;28;20025;-77
2023/04/24 01:42:22;;;;;;;30.95;22.35;;;;;;;8.14;100.00;99982.00;5072589;28;20031;-76
2023/04/24 01:44:48;;;;;;;31.92;23.20;;;;;;;8.14;100.00;99988.88;5073567;28;20028;-77
2023/04/24 01:47:13;;;;;;;31.73;24.40;;;;;;;8.11;100.00;99987.34;5073475;28;20024;-78
2023/04/24 01:49:39;;;;;;;34.72;25.17;;;;;;;8.10;100.00;99995.16;5073620;28;20035;-77
2023/04/24 01:52:05;;;;;;;36.17;27.13;;;;;;;7.87;100.00;99948.66;5073661;28;20043;-77
2023/04/24 01:54:30;;;;;;;37.05;27.45;;;;;;;8.06;100.00;99981.66;5073475;28;20427;-76
2023/04/24 01:56:55;;;;;;;37.80;27.45;;;;;;;7.93;100.00;99973.13;5073559;28;20404;-77
2023/04/24 01:59:23;;;;;;;40.88;29.73;;;;;;;8.01;100.00;99978.59;5073272;28;20486;-80
2023/04/24 02:01:48;;;;;;;41.80;29.00;;;;;;;7.76;100.00;99943.38;5073199;28;20541;-80
2023/04/24 02:04:15;;;;;;;43.25;31.30;;;;;;;7.87;100.00;99969.22;5072254;28;20053;-78
2023/04/24 02:06:40;;;;;;;45.92;30.75;;;;;;;7.98;100.00;99986.50;5073044;28;20031;-79
2023/04/24 02:09:05;;;;;;;44.65;31.83;;;;;;;7.99;100.00;99986.41;5073388;28;20103;-76
2023/04/24 02:11:31;;;;;;;46.40;32.85;;;;;;;7.93;100.00;99984.22;5073198;28;20048;-78
2023/04/24 02:13:56;;;;;;;46.13;33.65;;;;;;;7.58;100.00;99935.13;5073081;28;20533;-79
2023/04/24 02:16:22;;;;;;;44.90;31.20;;;;;;;7.95;100.00;100002.94;5072958;28;20440;-77
2023/04/24 02:18:47;;;;;;;48.83;33.95;;;;;;;7.94;100.00;99995.34;5072930;28;20440;-79
2023/04/24 02:21:12;;;;;;;46.42;33.88;;;;;;;7.94;100.00;99995.34;5073158;28;20504;-78
2023/04/24 02:23:38;;;;;;;51.67;33.58;;;;;;;7.54;100.00;99941.38;5072994;28;20376;-78
2023/04/24 02:26:03;;;;;;;44.30;33.03;;;;;;;7.90;100.00;100002.44;5073036;28;20099;-78
2023/04/24 02:28:28;;;;;;;46.10;31.02;;;;;;;7.89;100.00;99999.97;5073050;28;20048;-78
2023/04/24 02:30:54;;;;;;;41.00;30.50;;;;;;;7.85;100.00;100001.88;5073003;28;20380;-80
2023/04/24 02:33:19;;;;;;;38.55;27.40;;;;;;;7.87;100.00;100000.06;5072448;28;20031;-78
2023/04/24 02:35:45;;;;;;;40.25;29.05;;;;;;;7.74;100.00;99978.63;5071799;28;20033;-78
2023/04/24 02:38:10;;;;;;;40.00;28.38;;;;;;;7.86;100.00;100002.72;5072917;28;20110;-78
2023/04/24 02:40:35;;;;;;;39.72;28.45;;;;;;;7.78;100.00;99984.41;5072772;28;20476;-78
2023/04/24 02:43:00;;;;;;;37.20;27.70;;;;;;;7.87;100.00;99996.69;5072737;28;20109;-78
2023/04/24 02:45:26;;;;;;;37.22;28.27;;;;;;;7.90;100.00;99996.47;5072783;28;20032;-77
2023/04/24 02:47:51;;;;;;;36.35;26.73;;;;;;;7.89;100.00;99989.69;5072433;28;20102;-77
2023/04/24 02:50:17;;;;;;;33.67;27.02;;;;;;;7.65;100.00;99953.53;5072642;28;20024;-78
2023/04/24 02:52:42;;;;;;;35.28;25.58;;;;;;;7.87;100.00;99992.34;5072887;28;20092;-83
2023/04/24 02:55:08;;;;;;;38.25;25.48;;;;;;;7.72;100.00;99968.47;5073128;28;20490;-78
2023/04/24 02:57:33;;;;;;;37.33;25.40;;;;;;;7.75;100.00;99965.69;5072639;28;20036;-77
2023/04/24 02:59:59;;;;;;;34.80;25.20;;;;;;;7.85;100.00;99986.47;5072609;28;20032;-78
2023/04/24 03:02:24;;;;;;;35.03;26.30;;;;;;;7.65;100.00;99953.53;5072273;28;20024;-78
2023/04/24 03:04:50;;;;;;;36.40;27.00;;;;;;;7.74;100.00;99968.34;5072243;28;20047;-78
2023/04/24 03:07:15;;;;;;;36.00;25.50;;;;;;;7.78;100.00;99969.81;5072446;28;20464;-78
2023/04/24 03:09:41;;;;;;;33.30;25.17;;;;;;;7.57;100.00;99935.22;5072544;28;20040;-78
2023/04/24 03:12:07;;;;;;;33.03;25.63;;;;;;;7.59;100.00;99939.34;5072687;28;20107;-78
2023/04/24 03:14:33;;;;;;;34.10;25.35;;;;;;;7.88;100.00;99986.28;5072178;28;20142;-79
2023/04/24 03:16:58;;;;;;;34.45;26.02;;;;;;;7.70;100.00;99951.50;5071178;28;20035;-78
2023/04/24 03:19:24;;;;;;;38.72;27.05;;;;;;;7.72;100.00;99955.59;5072081;28;20028;-79
2023/04/24 03:21:49;;;;;;;34.92;25.02;;;;;;;7.68;100.00;99953.34;5072450;28;20032;-80
2023/04/24 03:24:15;;;;;;;31.27;24.05;;;;;;;7.93;100.00;99986.78;5072363;28;20033;-78
2023/04/24 03:26:40;;;;;;;34.75;24.67;;;;;;;7.97;100.00;99992.59;5072384;28;20120;-78
2023/04/24 03:29:05;;;;;;;32.42;24.73;;;;;;;7.93;100.00;99985.97;5072246;28;20027;-82
2023/04/24 03:31:31;;;;;;;30.65;25.10;;;;;;;7.90;100.00;99981.03;5072224;28;20671;-78
2023/04/24 03:33:56;;;;;;;36.67;25.77;;;;;;;7.86;100.00;99982.97;5071902;28;20523;-78
2023/04/24 03:36:21;;;;;;;34.38;24.30;;;;;;;7.85;100.00;99962.50;5072031;28;20075;-78
2023/04/24 03:38:47;;;;;;;31.70;23.75;;;;;;;7.89;100.00;99979.41;5072175;28;20021;-78
2023/04/24 03:41:12;;;;;;;33.35;24.75;;;;;;;7.89;100.00;99987.94;5072054;28;20023;-78
2023/04/24 03:43:37;;;;;;;31.17;24.15;;;;;;;7.63;100.00;99937.41;5072210;28;20066;-78
2023/04/24 03:46:03;;;;;;;29.30;21.80;;;;;;;7.60;100.00;99935.03;5072104;28;20021;-78
2023/04/24 03:48:29;;;;;;;29.52;22.05;;;;;;;7.86;100.00;99982.16;5071965;28;20025;-78
2023/04/24 03:50:54;;;;;;;28.38;21.50;;;;;;;7.59;100.00;99934.22;5071913;28;20486;-79
2023/04/24 03:53:20;;;;;;;29.88;22.08;;;;;;;7.34;100.00;99893.84;5071956;28;20056;-80
2023/04/24 03:55:46;;;;;;;30.02;22.35;;;;;;;7.63;100.00;99935.66;5072019;28;20396;-79
2023/04/24 03:58:11;;;;;;;29.67;21.70;;;;;;;7.89;100.00;99972.50;5072200;28;20033;-79
2023/04/24 04:00:37;;;;;;;26.10;20.95;;;;;;;7.69;100.00;99947.28;5071978;28;20056;-78
2023/04/24 04:03:03;;;;;;;29.05;22.38;;;;;;;7.74;100.00;99948.63;5071843;28;20492;-78
2023/04/24 04:05:28;;;;;;;25.88;20.17;;;;;;;7.80;100.00;99949.16;5071600;28;20048;-82
2023/04/24 04:07:54;;;;;;;26.52;20.63;;;;;;;7.65;100.00;99926.09;5071972;28;20024;-79
2023/04/24 04:10:19;;;;;;;27.35;21.15;;;;;;;7.66;100.00;99927.72;5071831;28;20395;-77
2023/04/24 04:12:45;;;;;;;27.38;20.85;;;;;;;7.59;100.00;99916.22;5072967;28;20028;-79
2023/04/24 04:15:10;;;;;;;29.00;21.55;;;;;;;7.74;100.00;99945.22;5072850;28;20028;-78
2023/04/24 04:17:37;;;;;;;26.40;20.50;;;;;;;7.87;100.00;99969.22;5071961;28;20028;-78
2023/04/24 04:20:07;;;;;;;26.27;20.02;;;;;;;7.55;100.00;99925.03;5071742;28;20039;-87
2023/04/24 04:22:32;;;;;;;27.80;20.05;;;;;;;7.90;100.00;99969.00;5071952;28;20063;-83
2023/04/24 04:24:57;;;;;;;25.42;20.48;;;;;;;7.67;100.00;99938.81;5071857;28;20048;-79
2023/04/24 04:27:23;;;;;;;25.50;19.73;;;;;;;7.30;100.00;99887.28;5072283;28;20358;-78
2023/04/24 04:29:48;;;;;;;25.15;19.90;;;;;;;7.79;100.00;99970.63;5075219;28;20025;-86
2023/04/24 04:32:13;;;;;;;26.90;20.33;;;;;;;7.66;100.00;99948.28;5075227;28;20028;-83
2023/04/24 04:34:39;;;;;;;26.90;18.95;;;;;;;7.80;100.00;99975.69;5075159;28;20048;-81
2023/04/24 04:37:05;;;;;;;26.45;20.08;;;;;;;7.34;100.00;99918.72;5074871;28;20352;-77
2023/04/24 04:39:31;;;;;;;27.05;18.58;;;;;;;7.64;100.00;99969.88;5075035;28;20037;-77
2023/04/24 04:41:56;;;;;;;26.15;20.15;;;;;;;7.70;100.00;99984.91;5075158;28;20028;-81
2023/04/24 04:44:23;;;;;;;27.33;20.00;;;;;;;7.69;100.00;99981.50;5074821;28;20038;-78
2023/04/24 04:46:49;;;;;;;27.02;20.30;;;;;;;7.01;100.00;99878.88;5074867;28;20020;-77
2023/04/24 04:49:16;;;;;;;27.17;20.60;;;;;;;7.32;100.00;99936.81;5074750;28;20388;-79
2023/04/24 04:51:42;;;;;;;26.13;19.83;;;;;;;7.57;100.00;99987.44;5074686;28;20107;-77
2023/04/24 04:54:07;;;;;;;25.23;19.35;;;;;;;7.38;100.00;99956.16;5074875;28;20439;-77
2023/04/24 04:56:33;;;;;;;25.40;19.90;;;;;;;7.66;100.00;99997.09;5074739;28;20082;-78
2023/04/24 04:58:59;;;;;;;26.30;19.70;;;;;;;7.65;100.00;100004.91;5074806;28;20024;-77
2023/04/24 05:01:25;;;;;;;25.23;18.00;;;;;;;7.65;100.00;100010.88;5074762;28;20028;-76
2023/04/24 05:03:50;;;;;;;23.63;18.17;;;;;;;7.54;100.00;99991.94;5074337;28;20051;-76
2023/04/24 05:06:16;;;;;;;23.90;18.65;;;;;;;7.50;100.00;99983.63;5074448;28;20032;-77
2023/04/24 05:08:42;;;;;;;24.20;19.48;;;;;;;7.65;100.00;100000.59;5074600;28;20028;-76
2023/04/24 05:11:07;;;;;;;23.25;17.75;;;;;;;7.56;100.00;99990.91;5074359;28;20115;-76
2023/04/24 05:13:32;;;;;;;20.83;16.70;;;;;;;7.72;100.00;100011.31;5074383;28;20292;-76
2023/04/24 05:15:58;;;;;;;19.02;15.13;;;;;;;7.70;100.00;100010.59;5074516;28;20048;-77
2023/04/24 05:18:24;;;;;;;20.45;14.45;;;;;;;7.72;100.00;100012.16;5074358;28;20055;-76
2023/04/24 05:20:49;;;;;;;20.02;13.75;;;;;;;7.63;100.00;100015.31;5073977;28;20135;-76
2023/04/24 05:23:14;;;;;;;20.42;13.98;;;;;;;7.66;100.00;100020.22;5073989;28;20025;-75
2023/04/24 05:25:41;;;;;;;19.58;13.80;;;;;;;7.64;100.00;100019.50;5074463;28;20368;-76
2023/04/24 05:28:07;;;;;;;16.85;13.10;;;;;;;7.57;100.00;100015.72;5074120;28;20429;-76
2023/04/24 05:30:32;;;;;;;17.10;12.57;;;;;;;7.63;100.00;100030.72;5073991;28;20028;-75
2023/04/24 05:32:57;;;;;;;14.98;10.27;;;;;;;7.60;100.00;100024.97;5073749;28;20039;-76
2023/04/24 05:35:23;;;;;;;13.05;8.93;;;;;;;7.50;100.00;100016.19;5073828;28;20056;-80
2023/04/24 05:37:48;;;;;;;13.32;8.50;;;;;;;7.45;100.00;100003.63;5073754;28;20092;-76
2023/04/24 05:40:13;;;;;;;10.90;7.45;;;;;;;7.51;100.00;100007.56;5072546;28;20039;-76
2023/04/24 05:42:39;;;;;;;8.73;4.95;;;;;;;7.52;100.00;100029.75;5073771;28;20024;-76
2023/04/24 05:45:05;;;;;;;8.25;4.47;;;;;;;7.54;100.00;100036.44;5073823;28;20051;-77
2023/04/24 05:47:31;;;;;;;7.90;4.35;;;;;;;7.38;100.00;100028.88;5073642;28;20494;-76
2023/04/24 05:49:56;;;;;;;7.28;4.68;;;;;;;7.41;100.00;100043.28;5073566;28;20029;-77
2023/04/24 05:52:21;;;;;;;8.45;4.68;;;;;;;7.62;100.00;100077.91;5072199;28;20373;-75
2023/04/24 05:54:47;;;;;;;7.47;4.15;;;;;;;7.52;100.00;100058.00;5073379;28;20458;-76
2023/04/24 05:57:13;;;;;;;6.50;4.25;;;;;;;7.50;100.00;100055.53;5072165;28;20037;-77
2023/04/24 05:59:38;;;;;;;8.70;5.32;;;;;;;7.68;100.00;100090.38;5073387;28;20388;-76
2023/04/24 06:02:04;;;;;;;6.93;4.93;;;;;;;7.31;100.00;100027.59;5073268;28;20032;-76
2023/04/24 06:04:29;;;;;;;7.38;5.40;;;;;;;7.75;100.00;100101.88;5072922;28;20131;-77
2023/04/24 06:06:55;;;;;;;9.45;6.93;;;;;;;7.62;100.00;100069.38;5073328;28;20069;-75
2023/04/24 06:09:22;;;;;;;9.68;6.70;;;;;;;7.86;100.00;100102.97;5073183;28;20051;-77
2023/04/24 06:11:47;;;;;;;10.80;7.95;;;;;;;7.85;100.00;100098.75;5073282;28;20040;-77
2023/04/24 06:14:13;;;;;;;10.52;7.88;;;;;;;7.93;100.00;100105.06;5073232;28;20032;-77
2023/04/24 06:16:41;;;;;;;10.73;8.45;;;;;;;7.93;100.00;100104.22;5073015;28;20020;-76
2023/04/24 06:19:07;;;;;;;9.10;7.90;;;;;;;7.99;100.00;100114.97;5073221;28;20032;-76
2023/04/24 06:21:32;;;;;;;8.98;7.45;;;;;;;8.03;100.00;100124.13;5072943;28;20020;-75
2023/04/24 06:23:58;;;;;;;9.05;6.82;;;;;;;8.02;100.00;100126.78;5072837;28;20032;-76
2023/04/24 06:26:24;;;;;;;7.75;6.70;;;;;;;8.02;100.00;100132.75;5072855;28;20032;-76
2023/04/24 06:28:51;;;;;;;10.85;7.82;;;;;;;8.06;100.00;100143.66;5072813;28;20081;-76
2023/04/24 06:31:16;;;;;;;9.98;7.93;;;;;;;7.86;100.00;100126.09;5073035;28;20537;-76
2023/04/24 06:33:42;;;;;;;10.75;8.48;;;;;;;7.96;100.00;100145.16;5071369;28;20055;-74
2023/04/24 06:36:08;;;;;;;11.07;8.90;;;;;;;7.91;100.00;100140.31;5073150;28;20066;-76
2023/04/24 06:38:34;;;;;;;10.30;9.20;;;;;;;7.89;100.00;100134.47;5072793;28;20109;-75
2023/04/24 06:40:59;;;;;;;10.77;9.25;;;;;;;8.07;100.00;100160.75;5072456;28;20611;-78
2023/04/24 06:43:24;;;;;;;12.15;9.80;;;;;;;8.09;100.00;100166.63;5072335;28;20032;-74
2023/04/24 06:45:50;;;;;;;11.18;9.52;;;;;;;8.06;100.00;100177.09;5072896;28;20031;-74
2023/04/24 06:48:15;;;;;;;9.95;7.80;;;;;;;8.01;100.00;100172.25;5072405;28;20107;-75
2023/04/24 06:50:41;;;;;;;7.75;5.60;;;;;;;8.00;100.00;100193.75;5071723;28;20106;-72
2023/04/24 06:53:06;;;;;;;6.68;4.90;;;;;;;7.92;100.00;100195.13;5072315;28;20036;-77
2023/04/24 06:55:31;;;;;;;10.48;7.38;;;;;;;7.87;100.00;100189.47;5072357;28;20060;-75
2023/04/24 06:57:57;;;;;;;11.38;7.78;;;;;;;7.78;100.00;100208.03;5072274;28;20124;-76
2023/04/24 07:00:24;;;;;;;11.68;8.55;;;;;;;7.72;100.00;100211.78;5072702;28;20029;-76
2023/04/24 07:02:49;;;;;;;13.93;9.38;;;;;;;7.69;100.00;100214.53;5072307;28;20472;-77
2023/04/24 07:05:15;;;;;;;14.90;8.73;;;;;;;7.51;100.00;100210.50;5072228;28;20056;-77
2023/04/24 07:07:40;;;;;;;16.02;10.82;;;;;;;7.50;100.00;100211.44;5072588;28;20054;-78
2023/04/24 07:10:06;;;;;;;16.05;11.07;;;;;;;7.57;100.00;100235.81;5072183;28;20461;-77
2023/04/24 07:12:32;;;;;;;17.42;12.00;;;;;;;7.39;100.00;100224.91;5071998;28;20111;-76
2023/04/24 07:14:57;;;;;;;16.83;12.68;;;;;;;7.38;100.00;100244.63;5072251;28;20108;-77
2023/04/24 07:17:22;;;;;;;19.35;13.57;;;;;;;7.40;100.00;100270.22;5072278;28;20074;-77
2023/04/24 07:19:48;;;;;;;24.73;14.07;;;;;;;7.33;100.00;100282.59;5072486;28;20025;-76
2023/04/24 07:22:16;;;;;;;19.13;13.50;;;;;;;7.29;100.00;100288.84;5070535;28;20032;-75
2023/04/24 07:24:43;;;;;;;22.40;14.30;;;;;;;7.27;100.00;100308.63;5072209;28;20459;-74
2023/04/24 07:27:08;;;;;;;22.80;13.40;;;;;;;7.16;100.00;100298.97;5071846;28;20024;-74
2023/04/24 07:29:35;;;;;;;19.52;13.45;;;;;;;7.13;100.00;100309.44;5072081;28;20423;-74
2023/04/24 07:32:00;;;;;;;21.45;13.68;;;;;;;7.05;100.00;100315.91;5071942;28;20031;-73
2023/04/24 07:34:26;;;;;;;20.27;13.18;;;;;;;7.14;100.00;100334.19;5072046;28;20036;-74
2023/04/24 07:36:51;;;;;;;25.23;14.07;;;;;;;7.18;100.00;100343.38;5071864;28;20115;-71
2023/04/24 07:39:18;;;;;;;22.80;14.20;;;;;;;7.18;100.00;100340.81;5071796;28;20062;-74
2023/04/24 07:41:43;;;;;;;22.15;13.75;;;;;;;7.23;100.00;100350.81;5072034;28;20013;-73
2023/04/24 07:44:09;;;;;;;24.25;13.85;;;;;;;7.16;100.00;100346.94;5071789;28;20035;-74
2023/04/24 07:46:34;;;;;;;20.75;12.18;;;;;;;7.20;100.00;100366.41;5071858;28;20053;-73
2023/04/24 07:49:01;;;;;;;18.90;12.30;;;;;;;7.18;100.00;100378.50;5072229;28;20394;-74
2023/04/24 07:51:27;;;;;;;23.85;12.98;;;;;;;7.18;100.00;100388.78;5071777;28;20481;-73
2023/04/24 07:53:54;;;;;;;25.40;11.23;;;;;;;7.03;100.00;100380.19;5071830;28;20131;-77
2023/04/24 07:56:20;;;;;;;17.20;10.55;;;;;;;7.13;100.00;100396.72;5071828;28;20024;-75
2023/04/24 07:58:45;;;;;;;20.65;10.43;;;;;;;7.11;100.00;100401.13;5071946;28;20027;-75
2023/04/24 08:01:11;;;;;;;19.95;9.63;;;;;;;7.09;100.00;100402.97;5070579;28;20047;-76
2023/04/24 08:03:36;;;;;;;19.05;9.32;;;;;;;7.11;100.00;100400.31;5076072;28;20067;-75
2023/04/24 08:06:01;;;;;;;25.08;10.35;;;;;;;7.22;100.00;100423.63;5075375;28;20396;-76
2023/04/24 08:08:27;;;;;;;23.08;10.00;;;;;;;7.25;100.00;100418.31;5075303;28;20044;-78
2023/04/24 08:10:52;;;;;;;22.92;8.85;;;;;;;7.28;100.00;100423.31;5075659;28;20028;-76
2023/04/24 08:13:17;;;;;;;20.10;8.48;;;;;;;7.17;100.00;100412.78;5075301;28;20032;-78
2023/04/24 08:15:43;;;;;;;20.27;9.73;;;;;;;7.25;100.00;100441.44;5075594;28;20214;-78
2023/04/24 08:18:08;;;;;;;21.98;8.73;;;;;;;7.26;100.00;100450.78;5074498;28;20541;-78
2023/04/24 08:20:34;;;;;;;17.83;7.80;;;;;;;7.06;100.00;100421.06;5075698;28;20025;-78
2023/04/24 08:22:59;;;;;;;23.48;8.43;;;;;;;7.26;100.00;100450.78;5075570;28;20044;-77
2023/04/24 08:25:25;;;;;;;17.90;8.48;;;;;;;7.21;100.00;100454.53;5075184;28;20351;-78
2023/04/24 08:27:51;;;;;;;21.58;9.48;;;;;;;7.15;100.00;100453.94;5075089;28;20029;-77
2023/04/24 08:30:17;;;;;;;17.27;7.88;;;;;;;7.24;100.00;100473.16;5075182;28;20027;-77
2023/04/24 08:32:42;;;;;;;19.40;7.53;;;;;;;7.24;100.00;100486.00;5075344;28;20107;-78
2023/04/24 08:35:09;;;;;;;16.42;6.40;;;;;;;7.29;100.00;100480.63;5074987;28;20036;-79
2023/04/24 08:37:34;;;;;;;18.58;6.82;;;;;;;7.24;100.00;100477.47;5074945;28;20115;-78
2023/04/24 08:40:00;;;;;;;19.80;7.25;;;;;;;6.93;100.00;100439.81;5074931;28;20114;-78
2023/04/24 08:42:28;;;;;;;19.15;6.57;;;;;;;7.29;100.00;100508.88;5074929;28;20061;-77
2023/04/24 08:44:54;;;;;;;18.23;6.55;;;;;;;7.26;100.00;100491.06;5074481;28;20781;-79
2023/04/24 08:47:20;;;;;;;20.27;7.05;;;;;;;7.37;100.00;100512.66;5074947;28;20154;-78
2023/04/24 08:49:48;;;;;;;22.35;6.78;;;;;;;7.42;100.00;100512.44;5074908;28;20520;-77
2023/04/24 08:52:13;;;;;;;21.55;6.78;;;;;;;7.51;100.00;100518.81;5074672;28;20033;-78
2023/04/24 08:54:40;;;;;;;20.17;6.45;;;;;;;7.57;100.00;100524.44;5074368;28;20033;-79
2023/04/24 08:57:07;;;;;;;23.35;7.82;;;;;;;7.63;100.00;100524.09;5074590;28;20115;-79
2023/04/24 08:59:34;;;;;;;19.95;6.20;;;;;;;7.86;100.00;100530.50;5074654;28;20024;-77
2023/04/24 09:01:59;;;;;;;16.25;6.60;;;;;;;7.69;100.00;100500.63;5074602;28;20021;-79
2023/04/24 09:04:26;;;;;;;22.85;6.80;;;;;;;7.82;100.00;100530.78;5072756;28;20381;-81
2023/04/24 09:06:56;;;;;;;15.82;5.57;;;;;;;7.78;100.00;100543.00;5073012;28;20886;-77
2023/04/24 09:09:24;;;;;;;20.58;5.82;;;;;;;7.65;100.00;100531.72;5074508;28;20032;-80
2023/04/24 09:11:53;;;;;;;19.17;6.57;;;;;;;7.63;100.00;100552.38;5073232;28;20028;-73
2023/04/24 09:14:19;;;;;;;18.35;6.25;;;;;;;7.45;100.00;100527.66;5073839;28;20021;-75
2023/04/24 09:16:44;;;;;;;16.42;5.15;;;;;;;7.83;100.00;100558.97;5074867;28;20031;-75
2023/04/24 09:19:10;;;;;;;15.15;5.00;;;;;;;8.02;100.00;100551.88;5074111;28;20104;-75
2023/04/24 09:21:36;;;;;;;12.02;5.00;;;;;;;8.11;100.00;100554.84;5074020;28;20070;-78
2023/04/24 09:24:05;;;;;;;13.27;4.05;;;;;;;8.19;100.00;100553.50;5073969;28;20025;-76
2023/04/24 09:26:32;;;;;;;12.43;3.75;;;;;;;8.42;100.00;100553.94;5074032;28;20024;-77
2023/04/24 09:28:58;;;;;;;12.85;3.85;;;;;;;8.74;100.00;100578.59;5073772;28;20502;-79
2023/04/24 09:31:24;;;;;;;13.63;3.42;;;;;;;9.05;100.00;100585.34;5074199;28;20050;-79
2023/04/24 09:34:07;;;;;;;11.77;4.07;;;;;;;9.45;100.00;100583.72;5072688;28;20020;-78
2023/04/24 09:36:42;;;;;;;11.02;3.80;;;;;;;9.49;100.00;100535.38;5074024;28;20020;-78
2023/04/24 09:39:10;;;;;;;12.07;3.83;;;;;;;9.86;100.00;100592.38;5073868;28;20032;-78
2023/04/24 09:41:44;;;;;;;13.30;3.42;;;;;;;9.43;99.85;100582.97;5073801;28;20418;-76
2023/04/24 09:44:17;;;;;;;10.35;4.10;;;;;;;9.34;100.00;100616.22;5073849;28;20024;-81
2023/04/24 09:46:44;;;;;;;11.52;3.05;;;;;;;8.97;100.00;100610.72;5073668;28;20020;-76
2023/04/24 09:49:13;;;;;;;9.27;3.08;;;;;;;8.55;100.00;100586.59;5072360;28;20518;-79
2023/04/24 09:51:38;;;;;;;12.77;3.40;;;;;;;8.59;100.00;100636.16;5073621;28;20028;-78
2023/04/24 09:54:12;;;;;;;15.38;5.13;;;;;;;8.40;100.00;100630.41;5073389;28;20062;-79
2023/04/24 09:56:42;;;;;;;8.50;3.50;;;;;;;8.31;100.00;100609.38;5073997;28;20029;-78
2023/04/24 09:59:07;;;;;;;10.05;3.47;;;;;;;8.20;100.00;100598.88;5073640;28;20070;-78
2023/04/24 10:01:33;;;;;;;10.98;3.30;;;;;;;8.45;100.00;100647.22;5073419;28;20033;-78
2023/04/24 10:03:59;;;;;;;10.75;3.50;;;;;;;8.27;100.00;100618.19;5073352;28;20029;-80
2023/04/24 10:06:35;;;;;;;10.35;2.97;;;;;;;8.50;100.00;100642.66;5071685;28;20392;-79
2023/04/24 10:09:01;;;;;;;10.90;3.25;;;;;;;8.79;100.00;100658.16;5072988;28;20108;-79
2023/04/24 10:11:27;;;;;;;11.95;3.13;;;;;;;8.76;99.25;100617.97;5073536;28;20412;-78
2023/04/24 10:13:53;;;;;;;10.27;3.25;;;;;;;9.25;97.14;100664.00;5073050;28;20123;-79
2023/04/24 10:16:21;;;;;;;8.93;2.55;;;;;;;9.24;97.71;100615.94;5073315;28;20227;-79
2023/04/24 10:18:48;;;;;;;10.13;2.83;;;;;;;9.16;93.97;100593.25;5071890;28;20036;-79
2023/04/24 10:21:15;;;;;;;8.32;2.80;;;;;;;9.50;94.76;100653.03;5073132;28;20025;-80
2023/04/24 10:23:41;;;;;;;10.88;2.58;;;;;;;9.35;95.43;100635.94;5072468;28;20036;-79
2023/04/24 10:26:09;;;;;;;9.02;2.22;;;;;;;9.52;91.84;100670.97;5072717;28;20033;-79
2023/04/24 10:28:36;;;;;;;6.60;1.92;;;;;;;9.36;91.45;100669.34;5072800;28;20024;-79
2023/04/24 10:31:01;;;;;;;5.75;2.17;;;;;;;9.15;90.56;100670.63;5073027;28;20028;-79
2023/04/24 10:33:29;;;;;;;8.55;2.28;;;;;;;8.96;91.25;100647.72;5072852;28;20043;-78
2023/04/24 10:35:55;;;;;;;7.95;1.98;;;;;;;8.85;93.30;100645.75;5072788;28;20020;-79
2023/04/24 10:38:26;;;;;;;6.55;2.15;;;;;;;9.05;94.50;100687.56;5072620;28;20024;-80
2023/04/24 10:40:58;;;;;;;5.68;2.30;;;;;;;8.89;93.20;100690.19;5072654;28;20023;-78
2023/04/24 10:43:23;;;;;;;;;;;;;;;8.85;94.94;100692.13;5072969;28;20029;-79
2023/04/24 10:46:05;;;;;;;4.70;1.30;;;;;;;8.88;94.79;100711.69;5072969;28;19919;-76
2023/04/24 10:48:32;;;;;;;5.38;1.50;;;;;;;9.02;93.20;100710.88;5071176;28;20426;-78
2023/04/24 10:50:57;;;;;;;7.05;2.55;;;;;;;9.11;90.68;100680.28;5073255;28;20472;-77
2023/04/24 10:53:27;;;;;;;6.32;2.13;;;;;;;9.67;90.22;100719.03;5072952;28;20039;-79
2023/04/24 10:56:09;;;;;;;3.80;1.17;;;;;;;9.73;88.86;100695.44;5072516;28;20025;-80
2023/04/24 10:58:45;;;;;;;6.25;1.20;;;;;;;9.73;87.80;100710.91;5072414;28;20448;-79
2023/04/24 11:01:34;;;;;;;4.63;1.58;;;;;;;9.60;89.96;100708.25;5066547;22;20099;-79
2023/04/24 11:04:02;;;;;;;5.30;1.55;;;;;;;9.44;91.15;100692.06;5052286;28;20044;-79
2023/04/24 11:06:31;;;;;;;5.93;1.65;;;;;;;9.47;88.37;100727.97;5052410;28;20449;-79
2023/04/24 11:09:03;;;;;;;3.38;1.70;;;;;;;9.41;89.22;100726.56;5051931;28;20021;-80
2023/04/24 11:11:30;;;;;;;4.95;1.92;;;;;;;9.24;88.96;100706.13;5052093;28;20025;-79
2023/04/24 11:13:55;;;;;;;4.95;1.58;;;;;;;9.38;87.15;100713.06;5052264;28;20013;-78
2023/04/24 11:16:29;;;;;;;5.57;1.50;;;;;;;9.54;89.27;100723.25;5052287;28;20443;-79